sensor_id;sensor_type;location;lat;lon;timestamp;P1;durP1;ratioP1;P2;durP2;ratioP2
9398;SDS011;4739;49.334;8.792;2022-10-26T00:00:39;3.53;;;2.77;;
9398;SDS011;4739;49.334;8.792;2022-10-26T00:03:04;6.90;;;3.00;;
9398;SDS011;4739;49.334;8.792;2022-10-26T00:05:31;7.27;;;3.23;;
9398;SDS011;4739;49.334;8.792;2022-10-26T00:07:58;5.70;;;2.90;;
9398;SDS011;4739;49.334;8.792;2022-10-26T00:10:24;5.60;;;3.10;;
9398;SDS011;4739;49.334;8.792;2022-10-26T00:12:50;7.07;;;2.13;;
9398;SDS011;4739;49.334;8.792;2022-10-26T00:15:16;4.73;;;2.13;;
9398;SDS011;4739;49.334;8.792;2022-10-26T00:17:42;2.70;;;2.20;;
9398;SDS011;4739;49.334;8.792;2022-10-26T00:20:08;3.67;;;2.27;;
9398;SDS011;4739;49.334;8.792;2022-10-26T00:22:34;7.50;;;4.77;;
9398;SDS011;4739;49.334;8.792;2022-10-26T00:25:00;7.67;;;5.23;;
9398;SDS011;4739;49.334;8.792;2022-10-26T00:27:25;5.73;;;3.33;;
9398;SDS011;4739;49.334;8.792;2022-10-26T00:29:51;6.23;;;2.33;;
9398;SDS011;4739;49.334;8.792;2022-10-26T00:32:16;4.97;;;2.80;;
9398;SDS011;4739;49.334;8.792;2022-10-26T00:34:42;6.57;;;1.83;;
9398;SDS011;4739;49.334;8.792;2022-10-26T00:37:07;7.07;;;2.37;;
9398;SDS011;4739;49.334;8.792;2022-10-26T00:39:33;6.97;;;2.80;;
9398;SDS011;4739;49.334;8.792;2022-10-26T00:41:59;4.77;;;2.20;;
9398;SDS011;4739;49.334;8.792;2022-10-26T00:47:29;4.27;;;2.17;;
9398;SDS011;4739;49.334;8.792;2022-10-26T00:50:46;6.50;;;2.63;;
9398;SDS011;4739;49.334;8.792;2022-10-26T00:52:56;5.50;;;2.27;;
9398;SDS011;4739;49.334;8.792;2022-10-26T00:55:24;8.30;;;3.20;;
9398;SDS011;4739;49.334;8.792;2022-10-26T00:57:53;5.07;;;2.73;;
9398;SDS011;4739;49.334;8.792;2022-10-26T01:00:19;6.33;;;4.00;;
9398;SDS011;4739;49.334;8.792;2022-10-26T01:02:45;8.07;;;2.63;;
9398;SDS011;4739;49.334;8.792;2022-10-26T01:05:14;4.40;;;2.20;;
9398;SDS011;4739;49.334;8.792;2022-10-26T01:07:41;6.13;;;2.23;;
9398;SDS011;4739;49.334;8.792;2022-10-26T01:10:08;8.10;;;2.37;;
9398;SDS011;4739;49.334;8.792;2022-10-26T01:12:34;6.17;;;2.30;;
9398;SDS011;4739;49.334;8.792;2022-10-26T01:15:01;3.63;;;2.57;;
9398;SDS011;4739;49.334;8.792;2022-10-26T01:28:06;4.10;;;2.20;;
9398;SDS011;4739;49.334;8.792;2022-10-26T01:30:44;4.47;;;1.80;;
9398;SDS011;4739;49.334;8.792;2022-10-26T01:43:41;6.33;;;2.23;;
9398;SDS011;4739;49.334;8.792;2022-10-26T01:46:10;3.93;;;2.07;;
9398;SDS011;4739;49.334;8.792;2022-10-26T01:48:37;4.20;;;2.00;;
9398;SDS011;4739;49.334;8.792;2022-10-26T01:51:05;5.60;;;2.03;;
9398;SDS011;4739;49.334;8.792;2022-10-26T01:53:33;5.03;;;2.10;;
9398;SDS011;4739;49.334;8.792;2022-10-26T01:55:58;6.63;;;2.00;;
9398;SDS011;4739;49.334;8.792;2022-10-26T01:58:32;4.27;;;2.30;;
9398;SDS011;4739;49.334;8.792;2022-10-26T02:03:36;5.47;;;1.80;;
9398;SDS011;4739;49.334;8.792;2022-10-26T02:08:51;4.93;;;1.93;;
9398;SDS011;4739;49.334;8.792;2022-10-26T02:11:31;4.67;;;1.93;;
9398;SDS011;4739;49.334;8.792;2022-10-26T02:14:24;4.03;;;1.80;;
9398;SDS011;4739;49.334;8.792;2022-10-26T02:19:55;4.73;;;2.00;;
9398;SDS011;4739;49.334;8.792;2022-10-26T02:22:37;4.50;;;2.03;;
9398;SDS011;4739;49.334;8.792;2022-10-26T02:25:08;5.30;;;1.80;;
9398;SDS011;4739;49.334;8.792;2022-10-26T02:27:40;3.43;;;1.67;;
9398;SDS011;4739;49.334;8.792;2022-10-26T02:30:08;4.67;;;2.10;;
9398;SDS011;4739;49.334;8.792;2022-10-26T02:32:36;5.40;;;1.90;;
9398;SDS011;4739;49.334;8.792;2022-10-26T02:35:06;8.80;;;2.10;;
9398;SDS011;4739;49.334;8.792;2022-10-26T02:37:33;5.10;;;2.47;;
9398;SDS011;4739;49.334;8.792;2022-10-26T02:40:02;6.00;;;2.20;;
9398;SDS011;4739;49.334;8.792;2022-10-26T02:42:30;5.27;;;2.00;;
9398;SDS011;4739;49.334;8.792;2022-10-26T02:44:58;8.00;;;2.03;;
9398;SDS011;4739;49.334;8.792;2022-10-26T02:47:29;5.97;;;2.00;;
9398;SDS011;4739;49.334;8.792;2022-10-26T02:49:55;3.83;;;2.10;;
9398;SDS011;4739;49.334;8.792;2022-10-26T02:55:28;3.67;;;1.80;;
9398;SDS011;4739;49.334;8.792;2022-10-26T02:58:00;4.23;;;2.03;;
9398;SDS011;4739;49.334;8.792;2022-10-26T03:00:28;3.20;;;1.50;;
9398;SDS011;4739;49.334;8.792;2022-10-26T03:02:56;3.50;;;1.87;;
9398;SDS011;4739;49.334;8.792;2022-10-26T03:05:23;6.30;;;2.00;;
9398;SDS011;4739;49.334;8.792;2022-10-26T03:07:52;4.60;;;1.90;;
9398;SDS011;4739;49.334;8.792;2022-10-26T03:10:19;4.40;;;1.83;;
9398;SDS011;4739;49.334;8.792;2022-10-26T03:12:46;4.57;;;1.90;;
9398;SDS011;4739;49.334;8.792;2022-10-26T03:15:11;3.53;;;1.90;;
9398;SDS011;4739;49.334;8.792;2022-10-26T03:17:37;5.70;;;2.30;;
9398;SDS011;4739;49.334;8.792;2022-10-26T03:20:03;5.30;;;2.40;;
9398;SDS011;4739;49.334;8.792;2022-10-26T03:22:29;5.03;;;2.90;;
9398;SDS011;4739;49.334;8.792;2022-10-26T03:24:54;6.20;;;2.53;;
9398;SDS011;4739;49.334;8.792;2022-10-26T03:27:20;4.23;;;2.33;;
9398;SDS011;4739;49.334;8.792;2022-10-26T03:29:46;3.70;;;2.50;;
9398;SDS011;4739;49.334;8.792;2022-10-26T03:32:11;5.43;;;2.50;;
9398;SDS011;4739;49.334;8.792;2022-10-26T03:34:37;4.70;;;2.80;;
9398;SDS011;4739;49.334;8.792;2022-10-26T03:37:02;5.23;;;2.63;;
9398;SDS011;4739;49.334;8.792;2022-10-26T03:39:28;6.27;;;2.80;;
9398;SDS011;4739;49.334;8.792;2022-10-26T03:41:53;4.03;;;2.50;;
9398;SDS011;4739;49.334;8.792;2022-10-26T03:44:22;7.23;;;2.90;;
9398;SDS011;4739;49.334;8.792;2022-10-26T03:46:47;3.47;;;2.23;;
9398;SDS011;4739;49.334;8.792;2022-10-26T03:49:13;4.27;;;2.80;;
9398;SDS011;4739;49.334;8.792;2022-10-26T03:51:38;4.97;;;2.43;;
9398;SDS011;4739;49.334;8.792;2022-10-26T03:54:04;3.03;;;2.07;;
9398;SDS011;4739;49.334;8.792;2022-10-26T03:56:30;3.97;;;2.40;;
9398;SDS011;4739;49.334;8.792;2022-10-26T03:58:55;4.50;;;2.47;;
9398;SDS011;4739;49.334;8.792;2022-10-26T04:01:21;7.17;;;2.80;;
9398;SDS011;4739;49.334;8.792;2022-10-26T04:03:47;4.17;;;2.40;;
9398;SDS011;4739;49.334;8.792;2022-10-26T04:06:12;4.67;;;2.43;;
9398;SDS011;4739;49.334;8.792;2022-10-26T04:08:38;5.50;;;2.70;;
9398;SDS011;4739;49.334;8.792;2022-10-26T04:11:04;6.03;;;2.83;;
9398;SDS011;4739;49.334;8.792;2022-10-26T04:13:29;6.87;;;2.23;;
9398;SDS011;4739;49.334;8.792;2022-10-26T04:15:55;3.63;;;2.30;;
9398;SDS011;4739;49.334;8.792;2022-10-26T04:18:20;8.50;;;2.53;;
9398;SDS011;4739;49.334;8.792;2022-10-26T04:20:46;5.23;;;2.37;;
9398;SDS011;4739;49.334;8.792;2022-10-26T04:23:12;4.47;;;2.60;;
9398;SDS011;4739;49.334;8.792;2022-10-26T04:25:39;3.83;;;2.67;;
9398;SDS011;4739;49.334;8.792;2022-10-26T04:28:05;5.43;;;2.87;;
9398;SDS011;4739;49.334;8.792;2022-10-26T04:30:32;3.20;;;2.20;;
9398;SDS011;4739;49.334;8.792;2022-10-26T04:32:58;6.30;;;2.63;;
9398;SDS011;4739;49.334;8.792;2022-10-26T04:35:25;4.57;;;2.40;;
9398;SDS011;4739;49.334;8.792;2022-10-26T04:37:55;7.60;;;2.33;;
9398;SDS011;4739;49.334;8.792;2022-10-26T04:40:21;6.73;;;2.43;;
9398;SDS011;4739;49.334;8.792;2022-10-26T04:42:47;3.73;;;2.30;;
9398;SDS011;4739;49.334;8.792;2022-10-26T04:45:13;3.27;;;2.10;;
9398;SDS011;4739;49.334;8.792;2022-10-26T04:47:40;6.43;;;2.13;;
9398;SDS011;4739;49.334;8.792;2022-10-26T04:50:07;7.47;;;2.50;;
9398;SDS011;4739;49.334;8.792;2022-10-26T04:52:34;5.37;;;2.20;;
9398;SDS011;4739;49.334;8.792;2022-10-26T04:55:00;5.17;;;2.57;;
9398;SDS011;4739;49.334;8.792;2022-10-26T04:57:25;5.33;;;2.57;;
9398;SDS011;4739;49.334;8.792;2022-10-26T04:59:51;4.13;;;1.97;;
9398;SDS011;4739;49.334;8.792;2022-10-26T05:02:17;3.70;;;2.10;;
9398;SDS011;4739;49.334;8.792;2022-10-26T05:04:44;4.63;;;1.80;;
9398;SDS011;4739;49.334;8.792;2022-10-26T05:07:10;4.37;;;1.80;;
9398;SDS011;4739;49.334;8.792;2022-10-26T05:09:36;6.10;;;2.33;;
9398;SDS011;4739;49.334;8.792;2022-10-26T05:12:01;4.13;;;2.00;;
9398;SDS011;4739;49.334;8.792;2022-10-26T05:14:27;4.00;;;2.13;;
9398;SDS011;4739;49.334;8.792;2022-10-26T05:16:52;4.90;;;2.30;;
9398;SDS011;4739;49.334;8.792;2022-10-26T05:19:19;6.67;;;2.10;;
9398;SDS011;4739;49.334;8.792;2022-10-26T05:21:45;4.33;;;2.10;;
9398;SDS011;4739;49.334;8.792;2022-10-26T05:24:11;4.17;;;2.20;;
9398;SDS011;4739;49.334;8.792;2022-10-26T05:26:36;4.00;;;2.30;;
9398;SDS011;4739;49.334;8.792;2022-10-26T05:29:02;5.97;;;2.10;;
9398;SDS011;4739;49.334;8.792;2022-10-26T05:31:27;5.23;;;2.00;;
9398;SDS011;4739;49.334;8.792;2022-10-26T05:33:53;5.60;;;2.10;;
9398;SDS011;4739;49.334;8.792;2022-10-26T05:36:19;5.40;;;2.07;;
9398;SDS011;4739;49.334;8.792;2022-10-26T05:38:45;4.53;;;2.30;;
9398;SDS011;4739;49.334;8.792;2022-10-26T05:41:11;7.50;;;2.30;;
9398;SDS011;4739;49.334;8.792;2022-10-26T05:43:36;4.03;;;1.80;;
9398;SDS011;4739;49.334;8.792;2022-10-26T05:46:02;2.90;;;2.03;;
9398;SDS011;4739;49.334;8.792;2022-10-26T05:48:28;4.30;;;2.20;;
9398;SDS011;4739;49.334;8.792;2022-10-26T05:50:53;10.03;;;2.37;;
9398;SDS011;4739;49.334;8.792;2022-10-26T05:53:24;6.60;;;2.37;;
9398;SDS011;4739;49.334;8.792;2022-10-26T05:55:50;4.10;;;2.40;;
9398;SDS011;4739;49.334;8.792;2022-10-26T05:58:16;4.50;;;2.20;;
9398;SDS011;4739;49.334;8.792;2022-10-26T06:06:23;8.97;;;2.30;;
9398;SDS011;4739;49.334;8.792;2022-10-26T06:08:50;4.77;;;2.30;;
9398;SDS011;4739;49.334;8.792;2022-10-26T06:11:16;6.13;;;2.93;;
9398;SDS011;4739;49.334;8.792;2022-10-26T06:13:42;7.43;;;2.87;;
9398;SDS011;4739;49.334;8.792;2022-10-26T06:16:23;5.07;;;2.77;;
9398;SDS011;4739;49.334;8.792;2022-10-26T06:19:02;14.23;;;2.80;;
9398;SDS011;4739;49.334;8.792;2022-10-26T06:21:42;5.00;;;2.20;;
9398;SDS011;4739;49.334;8.792;2022-10-26T06:24:21;5.90;;;2.70;;
9398;SDS011;4739;49.334;8.792;2022-10-26T06:29:44;5.83;;;3.13;;
9398;SDS011;4739;49.334;8.792;2022-10-26T06:32:31;8.67;;;4.50;;
9398;SDS011;4739;49.334;8.792;2022-10-26T06:35:01;11.83;;;4.20;;
9398;SDS011;4739;49.334;8.792;2022-10-26T06:37:48;8.50;;;3.10;;
9398;SDS011;4739;49.334;8.792;2022-10-26T06:40:15;8.67;;;2.90;;
9398;SDS011;4739;49.334;8.792;2022-10-26T06:42:41;3.83;;;2.83;;
9398;SDS011;4739;49.334;8.792;2022-10-26T06:45:13;5.73;;;2.60;;
9398;SDS011;4739;49.334;8.792;2022-10-26T06:55:39;5.90;;;2.53;;
9398;SDS011;4739;49.334;8.792;2022-10-26T06:58:08;4.07;;;2.23;;
9398;SDS011;4739;49.334;8.792;2022-10-26T07:00:39;3.67;;;2.17;;
9398;SDS011;4739;49.334;8.792;2022-10-26T07:03:05;5.87;;;2.43;;
9398;SDS011;4739;49.334;8.792;2022-10-26T07:05:30;5.20;;;2.27;;
9398;SDS011;4739;49.334;8.792;2022-10-26T07:07:57;6.93;;;2.33;;
9398;SDS011;4739;49.334;8.792;2022-10-26T07:10:23;7.60;;;2.53;;
9398;SDS011;4739;49.334;8.792;2022-10-26T07:12:49;8.63;;;2.63;;
9398;SDS011;4739;49.334;8.792;2022-10-26T07:15:14;4.73;;;2.40;;
9398;SDS011;4739;49.334;8.792;2022-10-26T07:17:46;5.40;;;3.23;;
9398;SDS011;4739;49.334;8.792;2022-10-26T07:20:16;5.17;;;2.10;;
9398;SDS011;4739;49.334;8.792;2022-10-26T07:22:43;4.80;;;2.70;;
9398;SDS011;4739;49.334;8.792;2022-10-26T07:25:08;3.23;;;2.40;;
9398;SDS011;4739;49.334;8.792;2022-10-26T07:27:36;4.57;;;2.70;;
9398;SDS011;4739;49.334;8.792;2022-10-26T07:30:01;4.00;;;2.13;;
9398;SDS011;4739;49.334;8.792;2022-10-26T07:32:27;4.17;;;2.40;;
9398;SDS011;4739;49.334;8.792;2022-10-26T07:34:54;4.50;;;2.40;;
9398;SDS011;4739;49.334;8.792;2022-10-26T07:37:20;10.63;;;2.40;;
9398;SDS011;4739;49.334;8.792;2022-10-26T07:39:45;3.43;;;2.40;;
9398;SDS011;4739;49.334;8.792;2022-10-26T07:42:11;4.27;;;2.43;;
9398;SDS011;4739;49.334;8.792;2022-10-26T07:44:36;3.70;;;2.20;;
9398;SDS011;4739;49.334;8.792;2022-10-26T07:47:02;3.40;;;2.33;;
9398;SDS011;4739;49.334;8.792;2022-10-26T07:49:27;5.00;;;2.20;;
9398;SDS011;4739;49.334;8.792;2022-10-26T07:51:53;4.70;;;2.30;;
9398;SDS011;4739;49.334;8.792;2022-10-26T07:54:19;9.00;;;3.50;;
9398;SDS011;4739;49.334;8.792;2022-10-26T07:56:44;6.27;;;3.50;;
9398;SDS011;4739;49.334;8.792;2022-10-26T07:59:13;5.23;;;3.63;;
9398;SDS011;4739;49.334;8.792;2022-10-26T08:01:39;5.47;;;3.50;;
9398;SDS011;4739;49.334;8.792;2022-10-26T08:04:05;12.03;;;6.03;;
9398;SDS011;4739;49.334;8.792;2022-10-26T08:06:30;7.47;;;4.07;;
9398;SDS011;4739;49.334;8.792;2022-10-26T08:08:56;5.90;;;3.20;;
9398;SDS011;4739;49.334;8.792;2022-10-26T08:11:21;6.43;;;2.73;;
9398;SDS011;4739;49.334;8.792;2022-10-26T08:13:50;9.03;;;3.30;;
9398;SDS011;4739;49.334;8.792;2022-10-26T08:16:17;6.13;;;3.20;;
9398;SDS011;4739;49.334;8.792;2022-10-26T08:18:43;7.80;;;4.13;;
9398;SDS011;4739;49.334;8.792;2022-10-26T08:21:09;7.77;;;3.90;;
9398;SDS011;4739;49.334;8.792;2022-10-26T08:23:36;10.40;;;4.97;;
9398;SDS011;4739;49.334;8.792;2022-10-26T08:26:02;8.67;;;4.10;;
9398;SDS011;4739;49.334;8.792;2022-10-26T08:28:28;5.87;;;3.70;;
9398;SDS011;4739;49.334;8.792;2022-10-26T08:30:54;6.43;;;4.23;;
9398;SDS011;4739;49.334;8.792;2022-10-26T08:33:20;10.50;;;3.77;;
9398;SDS011;4739;49.334;8.792;2022-10-26T08:35:46;5.77;;;3.07;;
9398;SDS011;4739;49.334;8.792;2022-10-26T08:38:12;6.83;;;3.10;;
9398;SDS011;4739;49.334;8.792;2022-10-26T08:40:39;4.23;;;2.80;;
9398;SDS011;4739;49.334;8.792;2022-10-26T08:45:40;7.93;;;3.10;;
9398;SDS011;4739;49.334;8.792;2022-10-26T08:48:15;7.33;;;3.40;;
9398;SDS011;4739;49.334;8.792;2022-10-26T08:50:52;4.47;;;3.30;;
9398;SDS011;4739;49.334;8.792;2022-10-26T08:53:23;4.63;;;2.87;;
9398;SDS011;4739;49.334;8.792;2022-10-26T08:55:52;7.27;;;3.40;;
9398;SDS011;4739;49.334;8.792;2022-10-26T08:58:30;6.17;;;3.87;;
9398;SDS011;4739;49.334;8.792;2022-10-26T09:01:02;6.70;;;3.40;;
9398;SDS011;4739;49.334;8.792;2022-10-26T09:03:29;6.20;;;3.00;;
9398;SDS011;4739;49.334;8.792;2022-10-26T09:06:09;5.70;;;3.00;;
9398;SDS011;4739;49.334;8.792;2022-10-26T09:11:50;4.80;;;3.20;;
9398;SDS011;4739;49.334;8.792;2022-10-26T09:14:22;4.97;;;3.20;;
9398;SDS011;4739;49.334;8.792;2022-10-26T09:17:12;9.20;;;3.57;;
9398;SDS011;4739;49.334;8.792;2022-10-26T09:24:58;6.83;;;2.77;;
9398;SDS011;4739;49.334;8.792;2022-10-26T09:27:43;9.37;;;3.03;;
9398;SDS011;4739;49.334;8.792;2022-10-26T09:30:14;4.63;;;3.10;;
9398;SDS011;4739;49.334;8.792;2022-10-26T09:32:46;7.47;;;3.20;;
9398;SDS011;4739;49.334;8.792;2022-10-26T09:35:47;6.33;;;2.60;;
9398;SDS011;4739;49.334;8.792;2022-10-26T09:38:17;3.60;;;2.20;;
9398;SDS011;4739;49.334;8.792;2022-10-26T09:40:55;5.00;;;2.80;;
9398;SDS011;4739;49.334;8.792;2022-10-26T09:43:37;5.70;;;3.07;;
9398;SDS011;4739;49.334;8.792;2022-10-26T09:46:14;10.10;;;3.20;;
9398;SDS011;4739;49.334;8.792;2022-10-26T09:48:49;8.20;;;2.90;;
9398;SDS011;4739;49.334;8.792;2022-10-26T09:51:19;5.63;;;2.73;;
9398;SDS011;4739;49.334;8.792;2022-10-26T09:53:47;10.47;;;2.90;;
9398;SDS011;4739;49.334;8.792;2022-10-26T09:56:14;7.20;;;2.77;;
9398;SDS011;4739;49.334;8.792;2022-10-26T09:58:45;5.70;;;2.70;;
9398;SDS011;4739;49.334;8.792;2022-10-26T10:09:27;7.90;;;2.60;;
9398;SDS011;4739;49.334;8.792;2022-10-26T10:11:54;5.30;;;2.70;;
9398;SDS011;4739;49.334;8.792;2022-10-26T10:14:24;8.90;;;2.87;;
9398;SDS011;4739;49.334;8.792;2022-10-26T10:16:55;7.43;;;2.80;;
9398;SDS011;4739;49.334;8.792;2022-10-26T10:19:29;5.70;;;3.07;;
9398;SDS011;4739;49.334;8.792;2022-10-26T10:22:00;4.57;;;2.67;;
9398;SDS011;4739;49.334;8.792;2022-10-26T10:24:39;3.63;;;2.50;;
9398;SDS011;4739;49.334;8.792;2022-10-26T10:29:42;7.07;;;2.57;;
9398;SDS011;4739;49.334;8.792;2022-10-26T10:32:19;5.90;;;2.63;;
9398;SDS011;4739;49.334;8.792;2022-10-26T10:34:52;7.10;;;2.30;;
9398;SDS011;4739;49.334;8.792;2022-10-26T10:39:57;8.17;;;2.67;;
9398;SDS011;4739;49.334;8.792;2022-10-26T10:42:30;4.00;;;2.20;;
9398;SDS011;4739;49.334;8.792;2022-10-26T10:44:58;7.00;;;2.43;;
9398;SDS011;4739;49.334;8.792;2022-10-26T10:47:26;5.33;;;2.70;;
9398;SDS011;4739;49.334;8.792;2022-10-26T10:49:56;4.27;;;2.40;;
9398;SDS011;4739;49.334;8.792;2022-10-26T10:52:39;5.50;;;2.10;;
9398;SDS011;4739;49.334;8.792;2022-10-26T11:00:23;4.17;;;2.20;;
9398;SDS011;4739;49.334;8.792;2022-10-26T11:06:30;4.57;;;2.40;;
9398;SDS011;4739;49.334;8.792;2022-10-26T11:08:35;6.17;;;2.57;;
9398;SDS011;4739;49.334;8.792;2022-10-26T11:13:38;10.90;;;2.60;;
9398;SDS011;4739;49.334;8.792;2022-10-26T11:17:10;7.93;;;2.50;;
9398;SDS011;4739;49.334;8.792;2022-10-26T11:19:35;6.23;;;2.20;;
9398;SDS011;4739;49.334;8.792;2022-10-26T11:22:19;3.93;;;2.13;;
9398;SDS011;4739;49.334;8.792;2022-10-26T11:25:02;6.37;;;2.33;;
9398;SDS011;4739;49.334;8.792;2022-10-26T11:27:38;6.93;;;2.30;;
9398;SDS011;4739;49.334;8.792;2022-10-26T11:30:23;6.68;;;2.28;;
9398;SDS011;4739;49.334;8.792;2022-10-26T11:32:51;5.37;;;2.33;;
9398;SDS011;4739;49.334;8.792;2022-10-26T11:40:51;4.03;;;1.97;;
9398;SDS011;4739;49.334;8.792;2022-10-26T11:43:28;6.57;;;2.10;;
9398;SDS011;4739;49.334;8.792;2022-10-26T11:46:16;5.40;;;1.97;;
9398;SDS011;4739;49.334;8.792;2022-10-26T11:48:59;6.35;;;2.20;;
9398;SDS011;4739;49.334;8.792;2022-10-26T11:51:45;6.13;;;2.13;;
9398;SDS011;4739;49.334;8.792;2022-10-26T11:57:06;2.60;;;1.73;;
9398;SDS011;4739;49.334;8.792;2022-10-26T11:59:38;4.13;;;1.83;;
9398;SDS011;4739;49.334;8.792;2022-10-26T12:02:17;5.50;;;2.17;;
9398;SDS011;4739;49.334;8.792;2022-10-26T12:04:52;6.70;;;2.47;;
9398;SDS011;4739;49.334;8.792;2022-10-26T12:07:27;3.93;;;2.00;;
9398;SDS011;4739;49.334;8.792;2022-10-26T12:09:55;6.90;;;1.90;;
9398;SDS011;4739;49.334;8.792;2022-10-26T12:15:17;4.50;;;2.40;;
9398;SDS011;4739;49.334;8.792;2022-10-26T12:17:49;6.13;;;2.00;;
9398;SDS011;4739;49.334;8.792;2022-10-26T12:23:15;5.07;;;2.20;;
9398;SDS011;4739;49.334;8.792;2022-10-26T12:25:41;5.13;;;2.10;;
9398;SDS011;4739;49.334;8.792;2022-10-26T12:34:02;5.30;;;2.10;;
9398;SDS011;4739;49.334;8.792;2022-10-26T12:36:47;7.80;;;2.53;;
9398;SDS011;4739;49.334;8.792;2022-10-26T12:41:53;5.97;;;2.40;;
9398;SDS011;4739;49.334;8.792;2022-10-26T12:44:40;3.93;;;1.73;;
9398;SDS011;4739;49.334;8.792;2022-10-26T12:50:01;4.83;;;2.60;;
9398;SDS011;4739;49.334;8.792;2022-10-26T12:52:47;5.70;;;2.10;;
9398;SDS011;4739;49.334;8.792;2022-10-26T13:03:58;8.63;;;2.00;;
9398;SDS011;4739;49.334;8.792;2022-10-26T13:06:53;4.70;;;1.90;;
9398;SDS011;4739;49.334;8.792;2022-10-26T13:09:39;7.00;;;2.10;;
9398;SDS011;4739;49.334;8.792;2022-10-26T13:12:19;4.30;;;2.13;;
9398;SDS011;4739;49.334;8.792;2022-10-26T13:14:52;6.70;;;1.83;;
9398;SDS011;4739;49.334;8.792;2022-10-26T13:17:22;4.63;;;2.00;;
9398;SDS011;4739;49.334;8.792;2022-10-26T13:19:53;6.77;;;2.30;;
9398;SDS011;4739;49.334;8.792;2022-10-26T13:22:21;4.13;;;2.00;;
9398;SDS011;4739;49.334;8.792;2022-10-26T13:24:52;8.00;;;2.28;;
9398;SDS011;4739;49.334;8.792;2022-10-26T13:32:32;3.88;;;1.80;;
9398;SDS011;4739;49.334;8.792;2022-10-26T13:35:04;5.65;;;2.30;;
9398;SDS011;4739;49.334;8.792;2022-10-26T13:37:34;4.90;;;2.03;;
9398;SDS011;4739;49.334;8.792;2022-10-26T13:40:02;5.80;;;1.83;;
9398;SDS011;4739;49.334;8.792;2022-10-26T13:42:36;6.40;;;2.33;;
9398;SDS011;4739;49.334;8.792;2022-10-26T13:45:14;4.38;;;1.80;;
9398;SDS011;4739;49.334;8.792;2022-10-26T13:50:28;4.50;;;1.85;;
9398;SDS011;4739;49.334;8.792;2022-10-26T13:53:14;2.70;;;2.17;;
9398;SDS011;4739;49.334;8.792;2022-10-26T13:55:52;6.07;;;2.55;;
9398;SDS011;4739;49.334;8.792;2022-10-26T13:58:24;5.63;;;2.10;;
9398;SDS011;4739;49.334;8.792;2022-10-26T14:01:11;5.53;;;2.33;;
9398;SDS011;4739;49.334;8.792;2022-10-26T14:03:40;6.87;;;3.43;;
9398;SDS011;4739;49.334;8.792;2022-10-26T14:06:14;8.77;;;5.00;;
9398;SDS011;4739;49.334;8.792;2022-10-26T14:08:47;7.47;;;4.53;;
9398;SDS011;4739;49.334;8.792;2022-10-26T14:11:15;7.93;;;4.00;;
9398;SDS011;4739;49.334;8.792;2022-10-26T14:13:44;6.50;;;3.20;;
9398;SDS011;4739;49.334;8.792;2022-10-26T14:16:11;10.17;;;3.87;;
9398;SDS011;4739;49.334;8.792;2022-10-26T14:18:40;9.32;;;2.92;;
9398;SDS011;4739;49.334;8.792;2022-10-26T14:21:07;9.43;;;2.43;;
9398;SDS011;4739;49.334;8.792;2022-10-26T14:26:20;8.50;;;2.83;;
9398;SDS011;4739;49.334;8.792;2022-10-26T14:28:50;6.77;;;2.50;;
9398;SDS011;4739;49.334;8.792;2022-10-26T14:31:20;12.07;;;3.37;;
9398;SDS011;4739;49.334;8.792;2022-10-26T14:33:53;8.30;;;2.77;;
9398;SDS011;4739;49.334;8.792;2022-10-26T14:36:20;6.67;;;2.90;;
9398;SDS011;4739;49.334;8.792;2022-10-26T14:38:52;10.93;;;3.47;;
9398;SDS011;4739;49.334;8.792;2022-10-26T14:41:21;10.50;;;3.60;;
9398;SDS011;4739;49.334;8.792;2022-10-26T14:43:48;9.80;;;3.40;;
9398;SDS011;4739;49.334;8.792;2022-10-26T14:46:14;13.87;;;3.20;;
9398;SDS011;4739;49.334;8.792;2022-10-26T14:48:50;8.57;;;3.23;;
9398;SDS011;4739;49.334;8.792;2022-10-26T14:51:28;7.50;;;2.67;;
9398;SDS011;4739;49.334;8.792;2022-10-26T14:53:58;8.30;;;2.70;;
9398;SDS011;4739;49.334;8.792;2022-10-26T14:59:08;8.67;;;2.57;;
9398;SDS011;4739;49.334;8.792;2022-10-26T15:04:30;8.63;;;3.10;;
9398;SDS011;4739;49.334;8.792;2022-10-26T15:07:00;8.37;;;3.00;;
9398;SDS011;4739;49.334;8.792;2022-10-26T15:09:42;8.03;;;2.60;;
9398;SDS011;4739;49.334;8.792;2022-10-26T15:14:46;7.37;;;2.80;;
9398;SDS011;4739;49.334;8.792;2022-10-26T15:17:19;8.00;;;3.30;;
9398;SDS011;4739;49.334;8.792;2022-10-26T15:19:51;10.00;;;3.20;;
9398;SDS011;4739;49.334;8.792;2022-10-26T15:22:22;14.93;;;3.50;;
9398;SDS011;4739;49.334;8.792;2022-10-26T15:24:50;11.60;;;3.60;;
9398;SDS011;4739;49.334;8.792;2022-10-26T15:27:18;10.80;;;2.73;;
9398;SDS011;4739;49.334;8.792;2022-10-26T15:29:47;7.80;;;2.93;;
9398;SDS011;4739;49.334;8.792;2022-10-26T15:32:19;11.63;;;2.57;;
9398;SDS011;4739;49.334;8.792;2022-10-26T15:37:40;6.93;;;2.73;;
9398;SDS011;4739;49.334;8.792;2022-10-26T15:40:05;11.97;;;2.80;;
9398;SDS011;4739;49.334;8.792;2022-10-26T15:42:34;10.23;;;2.80;;
9398;SDS011;4739;49.334;8.792;2022-10-26T15:45:12;8.57;;;2.90;;
9398;SDS011;4739;49.334;8.792;2022-10-26T15:47:43;9.00;;;3.40;;
9398;SDS011;4739;49.334;8.792;2022-10-26T15:50:14;7.73;;;2.83;;
9398;SDS011;4739;49.334;8.792;2022-10-26T15:52:41;7.40;;;2.50;;
9398;SDS011;4739;49.334;8.792;2022-10-26T15:55:08;9.10;;;2.93;;
9398;SDS011;4739;49.334;8.792;2022-10-26T15:57:34;9.50;;;2.97;;
9398;SDS011;4739;49.334;8.792;2022-10-26T16:00:01;10.30;;;3.13;;
9398;SDS011;4739;49.334;8.792;2022-10-26T16:02:27;10.13;;;3.13;;
9398;SDS011;4739;49.334;8.792;2022-10-26T16:04:53;9.00;;;3.00;;
9398;SDS011;4739;49.334;8.792;2022-10-26T16:07:19;5.83;;;3.20;;
9398;SDS011;4739;49.334;8.792;2022-10-26T16:09:48;8.17;;;3.20;;
9398;SDS011;4739;49.334;8.792;2022-10-26T16:12:14;10.63;;;3.57;;
9398;SDS011;4739;49.334;8.792;2022-10-26T16:14:40;7.53;;;3.13;;
9398;SDS011;4739;49.334;8.792;2022-10-26T16:17:05;9.00;;;3.17;;
9398;SDS011;4739;49.334;8.792;2022-10-26T16:19:32;8.47;;;2.83;;
9398;SDS011;4739;49.334;8.792;2022-10-26T16:21:58;9.33;;;3.13;;
9398;SDS011;4739;49.334;8.792;2022-10-26T16:24:25;9.30;;;3.43;;
9398;SDS011;4739;49.334;8.792;2022-10-26T16:26:51;6.10;;;3.00;;
9398;SDS011;4739;49.334;8.792;2022-10-26T16:29:17;7.47;;;3.10;;
9398;SDS011;4739;49.334;8.792;2022-10-26T16:31:43;10.33;;;3.60;;
9398;SDS011;4739;49.334;8.792;2022-10-26T16:34:09;9.43;;;3.27;;
9398;SDS011;4739;49.334;8.792;2022-10-26T16:36:35;6.67;;;3.23;;
9398;SDS011;4739;49.334;8.792;2022-10-26T16:41:33;11.23;;;4.13;;
9398;SDS011;4739;49.334;8.792;2022-10-26T16:43:59;10.40;;;6.13;;
9398;SDS011;4739;49.334;8.792;2022-10-26T16:46:24;8.30;;;4.80;;
9398;SDS011;4739;49.334;8.792;2022-10-26T16:48:50;14.70;;;6.73;;
9398;SDS011;4739;49.334;8.792;2022-10-26T16:51:17;10.60;;;3.60;;
9398;SDS011;4739;49.334;8.792;2022-10-26T16:53:45;12.23;;;3.00;;
9398;SDS011;4739;49.334;8.792;2022-10-26T16:56:13;9.20;;;3.00;;
9398;SDS011;4739;49.334;8.792;2022-10-26T16:58:41;12.77;;;3.33;;
9398;SDS011;4739;49.334;8.792;2022-10-26T17:01:07;11.17;;;3.20;;
9398;SDS011;4739;49.334;8.792;2022-10-26T17:03:33;7.70;;;3.10;;
9398;SDS011;4739;49.334;8.792;2022-10-26T17:06:00;14.10;;;3.80;;
9398;SDS011;4739;49.334;8.792;2022-10-26T17:08:27;10.30;;;3.37;;
9398;SDS011;4739;49.334;8.792;2022-10-26T17:10:53;9.13;;;3.40;;
9398;SDS011;4739;49.334;8.792;2022-10-26T17:13:19;10.13;;;3.77;;
9398;SDS011;4739;49.334;8.792;2022-10-26T17:15:45;10.47;;;3.70;;
9398;SDS011;4739;49.334;8.792;2022-10-26T17:18:11;6.90;;;3.53;;
9398;SDS011;4739;49.334;8.792;2022-10-26T17:20:38;9.30;;;3.10;;
9398;SDS011;4739;49.334;8.792;2022-10-26T17:23:04;8.53;;;3.23;;
9398;SDS011;4739;49.334;8.792;2022-10-26T17:25:33;7.97;;;3.00;;
9398;SDS011;4739;49.334;8.792;2022-10-26T17:28:00;7.87;;;2.97;;
9398;SDS011;4739;49.334;8.792;2022-10-26T17:30:26;6.17;;;3.40;;
9398;SDS011;4739;49.334;8.792;2022-10-26T17:32:53;6.50;;;3.30;;
9398;SDS011;4739;49.334;8.792;2022-10-26T17:35:18;4.50;;;2.70;;
9398;SDS011;4739;49.334;8.792;2022-10-26T17:37:44;6.73;;;3.20;;
9398;SDS011;4739;49.334;8.792;2022-10-26T17:40:10;11.27;;;8.90;;
9398;SDS011;4739;49.334;8.792;2022-10-26T17:42:35;22.57;;;16.73;;
9398;SDS011;4739;49.334;8.792;2022-10-26T17:45:01;12.33;;;6.23;;
9398;SDS011;4739;49.334;8.792;2022-10-26T17:47:27;11.67;;;6.40;;
9398;SDS011;4739;49.334;8.792;2022-10-26T17:49:52;8.87;;;5.13;;
9398;SDS011;4739;49.334;8.792;2022-10-26T17:52:18;6.83;;;3.40;;
9398;SDS011;4739;49.334;8.792;2022-10-26T17:54:44;9.90;;;6.20;;